createdAt,value
2019-04-21T00:00:25.826Z,2.10
2019-04-21T00:02:55.407Z,2.50
2019-04-21T00:05:49.906Z,2.37
2019-04-21T00:08:27.798Z,2.40
2019-04-21T00:10:51.336Z,2.37
2019-04-21T00:13:12.510Z,2.23
2019-04-21T00:15:33.551Z,2.43
2019-04-21T00:18:08.864Z,2.47
2019-04-21T00:20:44.196Z,2.53
2019-04-21T00:23:24.250Z,2.33
2019-04-21T00:25:49.891Z,2.30
2019-04-21T00:28:30.336Z,2.50
2019-04-21T00:30:55.504Z,2.47
2019-04-21T00:33:15.785Z,2.30
2019-04-21T00:35:45.401Z,2.30
2019-04-21T00:38:32.153Z,2.20
2019-04-21T00:41:01.632Z,2.27
2019-04-21T00:43:28.023Z,2.47
2019-04-21T00:45:51.925Z,2.47
2019-04-21T00:48:34.407Z,2.30
2019-04-21T00:51:18.431Z,2.10
2019-04-21T00:53:45.133Z,2.20
2019-04-21T00:56:13.499Z,2.17
2019-04-21T00:58:42.260Z,2.17
2019-04-21T01:01:09.026Z,2.43
2019-04-21T01:03:41.139Z,2.47
2019-04-21T01:06:09.750Z,2.40
2019-04-21T01:08:35.673Z,2.20
2019-04-21T01:11:01.472Z,2.10
2019-04-21T01:13:42.602Z,2.50
2019-04-21T01:16:14.117Z,2.30
2019-04-21T01:18:39.441Z,2.23
2019-04-21T01:20:49.711Z,2.40
2019-04-21T01:23:19.221Z,2.50
2019-04-21T01:26:00.812Z,2.30
2019-04-21T01:28:36.245Z,2.17
2019-04-21T01:31:08.783Z,2.43
2019-04-21T01:36:11.353Z,2.50
2019-04-21T01:38:40.252Z,2.50
2019-04-21T01:41:16.164Z,2.27
2019-04-21T01:43:39.446Z,2.50
2019-04-21T01:46:09.295Z,2.53
2019-04-21T01:48:36.772Z,2.53
2019-04-21T01:51:07.575Z,2.40
2019-04-21T01:53:48.606Z,2.23
2019-04-21T01:56:29.257Z,2.50
2019-04-21T01:58:46.293Z,2.50
2019-04-21T02:01:28.444Z,2.60
2019-04-21T02:03:58.397Z,2.20
2019-04-21T02:06:27.589Z,2.37
2019-04-21T02:09:02.225Z,2.50
2019-04-21T02:11:31.041Z,2.00
2019-04-21T02:14:05.966Z,2.37
2019-04-21T02:16:32.752Z,2.57
2019-04-21T02:18:56.776Z,2.47
2019-04-21T02:21:24.031Z,2.20
2019-04-21T02:24:05.353Z,2.47
2019-04-21T02:26:33.595Z,2.47
2019-04-21T02:29:03.283Z,2.77
2019-04-21T02:34:09.130Z,2.87
2019-04-21T02:37:14.392Z,2.20
2019-04-21T02:39:16.454Z,2.70
2019-04-21T02:41:55.866Z,2.50
2019-04-21T02:44:30.000Z,2.43
2019-04-21T02:46:46.682Z,2.67
2019-04-21T02:49:38.162Z,2.40
2019-04-21T02:54:45.886Z,2.37
2019-04-21T02:56:51.494Z,2.43
2019-04-21T02:59:24.321Z,2.27
2019-04-21T03:02:17.097Z,2.10
2019-04-21T03:10:09.484Z,2.10
2019-04-21T03:14:56.025Z,2.50
2019-04-21T03:17:22.329Z,2.30
2019-04-21T03:22:20.828Z,2.27
2019-04-21T03:25:04.646Z,2.33
2019-04-21T03:29:54.380Z,2.17
2019-04-21T03:32:50.599Z,2.50
2019-04-21T03:37:23.291Z,2.00
2019-04-21T03:39:51.835Z,2.13
2019-04-21T03:49:56.354Z,2.40
2019-04-21T03:52:36.104Z,2.30
2019-04-21T03:55:41.421Z,2.30
2019-04-21T04:00:33.609Z,2.13
2019-04-21T04:03:07.592Z,2.57
2019-04-21T04:08:44.751Z,2.10
2019-04-21T04:11:19.595Z,2.20
2019-04-21T04:13:37.699Z,2.23
2019-04-21T04:18:46.187Z,2.40
2019-04-21T04:21:12.214Z,2.20
2019-04-21T04:31:06.139Z,2.43
2019-04-21T04:36:15.584Z,2.33
2019-04-21T04:38:41.662Z,2.07
2019-04-21T04:41:15.903Z,2.23
2019-04-21T04:43:36.289Z,2.27
2019-04-21T04:48:34.909Z,2.30
2019-04-21T04:53:47.397Z,2.07
2019-04-21T04:56:12.338Z,2.00
2019-04-21T04:58:59.508Z,2.33
2019-04-21T05:01:24.578Z,2.20
2019-04-21T05:11:44.523Z,2.13
2019-04-21T05:14:03.355Z,2.37
2019-04-21T05:16:36.637Z,2.10
2019-04-21T05:19:04.160Z,2.20
2019-04-21T05:21:29.965Z,2.00
2019-04-21T05:23:44.084Z,2.23
2019-04-21T05:26:09.899Z,2.40
2019-04-21T05:28:42.064Z,2.20
2019-04-21T05:31:25.447Z,2.03
2019-04-21T05:33:59.069Z,1.90
2019-04-21T05:36:30.916Z,2.10
2019-04-21T05:39:12.024Z,2.00
2019-04-21T05:41:34.841Z,2.10
2019-04-21T05:44:19.277Z,1.87
2019-04-21T05:47:04.885Z,2.30
2019-04-21T05:49:14.102Z,2.50
2019-04-21T05:51:57.431Z,2.53
2019-04-21T05:54:39.051Z,1.97
2019-04-21T05:56:59.763Z,2.03
2019-04-21T05:59:32.309Z,2.00
2019-04-21T06:02:13.970Z,1.93
2019-04-21T06:04:48.119Z,2.70
2019-04-21T06:07:13.299Z,1.73
2019-04-21T06:09:38.155Z,2.03
2019-04-21T06:12:10.083Z,2.00
2019-04-21T06:14:45.290Z,2.20
2019-04-21T06:17:17.502Z,1.90
2019-04-21T06:19:45.039Z,2.00
2019-04-21T06:22:10.444Z,2.10
2019-04-21T06:24:45.577Z,2.30
2019-04-21T06:27:13.428Z,2.20
2019-04-21T06:29:36.464Z,2.20
2019-04-21T06:35:04.442Z,2.00
2019-04-21T06:37:34.816Z,2.17
2019-04-21T06:39:51.601Z,1.83
2019-04-21T06:42:09.149Z,2.40
2019-04-21T06:44:48.452Z,2.47
2019-04-21T06:47:17.647Z,2.00
2019-04-21T06:49:36.945Z,2.03
2019-04-21T06:52:29.907Z,2.07
2019-04-21T06:55:03.546Z,2.40
2019-04-21T06:57:16.933Z,2.17
2019-04-21T06:59:39.050Z,2.00
2019-04-21T07:02:32.132Z,2.10
2019-04-21T07:04:43.384Z,1.80
2019-04-21T07:07:14.525Z,2.00
2019-04-21T07:09:48.281Z,2.37
2019-04-21T07:12:13.785Z,2.30
2019-04-21T07:14:44.090Z,2.07
2019-04-21T07:17:19.919Z,2.00
2019-04-21T07:19:49.899Z,2.20
2019-04-21T07:22:19.578Z,2.20
2019-04-21T07:24:43.349Z,2.07
2019-04-21T07:27:17.476Z,1.97
2019-04-21T07:29:47.511Z,2.13
2019-04-21T07:32:15.329Z,2.20
2019-04-21T07:34:47.634Z,2.17
2019-04-21T07:37:13.934Z,2.17
2019-04-21T07:39:45.158Z,1.90
2019-04-21T07:42:13.284Z,1.90
2019-04-21T07:44:40.832Z,1.90
2019-04-21T07:47:17.075Z,2.30
2019-04-21T07:49:53.076Z,2.13
2019-04-21T07:52:28.243Z,2.30
2019-04-21T07:55:07.991Z,2.30
2019-04-21T07:57:18.748Z,2.00
2019-04-21T08:00:09.857Z,2.00
2019-04-21T08:02:27.588Z,2.37
2019-04-21T08:05:02.656Z,2.10
2019-04-21T08:07:38.285Z,1.93
2019-04-21T08:09:51.481Z,2.57
2019-04-21T08:12:20.068Z,2.27
2019-04-21T08:15:03.172Z,2.13
2019-04-21T08:17:23.466Z,2.20
2019-04-21T08:19:57.716Z,2.10
2019-04-21T08:22:35.135Z,2.10
2019-04-21T08:24:56.157Z,2.20
2019-04-21T08:27:35.424Z,2.23
2019-04-21T08:29:58.284Z,2.50
2019-04-21T08:32:38.468Z,1.90
2019-04-21T08:35:22.446Z,2.20
2019-04-21T08:37:31.273Z,2.07
2019-04-21T08:40:23.444Z,1.80
2019-04-21T08:42:30.450Z,2.23
2019-04-21T08:45:05.613Z,1.90
2019-04-21T08:47:33.077Z,2.03
2019-04-21T08:50:00.695Z,2.20
2019-04-21T08:52:50.977Z,2.13
2019-04-21T08:55:12.466Z,1.93
2019-04-21T08:58:15.218Z,2.63
2019-04-21T09:00:41.399Z,2.10
2019-04-21T09:03:06.775Z,1.97
2019-04-21T09:05:40.379Z,2.20
2019-04-21T09:08:12.857Z,2.23
2019-04-21T09:10:44.433Z,2.10
2019-04-21T09:13:04.300Z,1.90
2019-04-21T09:15:34.994Z,2.23
2019-04-21T09:18:05.364Z,2.00
2019-04-21T09:20:47.093Z,2.20
2019-04-21T09:23:06.407Z,2.10
2019-04-21T09:25:58.769Z,2.20
2019-04-21T09:28:04.019Z,2.30
2019-04-21T09:30:23.978Z,1.83
2019-04-21T09:32:56.093Z,1.90
2019-04-21T09:35:24.093Z,2.17
2019-04-21T09:38:00.568Z,2.30
2019-04-21T09:40:31.331Z,2.00
2019-04-21T09:42:59.473Z,2.07
2019-04-21T09:45:24.451Z,2.20
2019-04-21T09:48:01.683Z,2.30
2019-04-21T09:50:24.294Z,2.03
2019-04-21T09:52:57.885Z,2.03
2019-04-21T09:55:26.579Z,2.23
2019-04-21T09:57:56.997Z,2.00
2019-04-21T10:00:27.199Z,2.13
2019-04-21T10:03:00.583Z,2.10
2019-04-21T10:05:25.167Z,2.00
2019-04-21T10:07:55.146Z,1.90
2019-04-21T10:10:25.174Z,2.03
2019-04-21T10:12:54.003Z,2.20
2019-04-21T10:15:24.845Z,2.30
2019-04-21T10:18:06.386Z,2.00
2019-04-21T10:20:36.064Z,2.17
2019-04-21T10:23:05.068Z,2.10
2019-04-21T10:25:34.554Z,2.30
2019-04-21T10:28:03.348Z,2.30
2019-04-21T10:30:32.927Z,2.10
2019-04-21T10:33:01.576Z,2.10
2019-04-21T10:35:31.039Z,2.30
2019-04-21T10:38:13.654Z,2.57
2019-04-21T10:40:32.594Z,2.10
2019-04-21T10:43:01.133Z,2.20
2019-04-21T10:45:30.833Z,2.00
2019-04-21T10:48:00.834Z,2.10
2019-04-21T10:50:29.672Z,2.13
2019-04-21T10:53:03.004Z,2.17
2019-04-21T10:55:53.280Z,2.27
2019-04-21T10:58:16.300Z,1.93
2019-04-21T11:00:46.500Z,2.00
2019-04-21T11:03:35.275Z,2.30
2019-04-21T11:06:08.632Z,2.10
2019-04-21T11:08:43.346Z,1.90
2019-04-21T11:11:08.263Z,2.23
2019-04-21T11:13:37.058Z,2.23
2019-04-21T11:16:05.776Z,2.00
2019-04-21T11:18:35.744Z,2.17
2019-04-21T11:21:04.942Z,1.80
2019-04-21T11:23:33.587Z,2.10
2019-04-21T11:26:02.337Z,2.20
2019-04-21T11:28:31.214Z,2.27
2019-04-21T11:31:00.554Z,2.17
2019-04-21T11:33:29.316Z,1.80
2019-04-21T11:35:59.090Z,2.13
2019-04-21T11:38:35.513Z,2.10
2019-04-21T11:41:03.476Z,1.93
2019-04-21T11:43:32.896Z,2.23
2019-04-21T11:46:02.598Z,2.13
2019-04-21T11:48:32.393Z,2.10
2019-04-21T11:51:01.406Z,2.23
2019-04-21T11:53:30.744Z,2.23
2019-04-21T11:56:00.781Z,1.90
2019-04-21T11:58:29.856Z,2.23
2019-04-21T12:01:00.326Z,2.07
2019-04-21T12:03:29.471Z,2.00
2019-04-21T12:05:59.461Z,2.00
2019-04-21T12:08:35.097Z,2.33
2019-04-21T12:10:59.761Z,2.07
2019-04-21T12:13:29.920Z,2.10
2019-04-21T12:15:59.026Z,2.10
2019-04-21T12:18:29.732Z,2.10
2019-04-21T12:20:57.955Z,1.83
2019-04-21T12:23:26.873Z,2.00
2019-04-21T12:25:56.838Z,2.00
2019-04-21T12:28:25.871Z,2.20
2019-04-21T12:30:55.801Z,1.90
2019-04-21T12:33:38.196Z,2.10
2019-04-21T12:36:07.127Z,2.03
2019-04-21T12:38:44.720Z,1.70
2019-04-21T12:41:06.613Z,1.90
2019-04-21T12:43:35.163Z,1.70
2019-04-21T12:46:04.319Z,2.23
2019-04-21T12:48:33.772Z,1.80
2019-04-21T12:51:03.770Z,1.80
2019-04-21T12:53:33.835Z,1.90
2019-04-21T12:56:02.509Z,1.80
2019-04-21T12:58:31.190Z,1.90
2019-04-21T13:00:58.922Z,1.90
2019-04-21T13:03:28.705Z,2.10
2019-04-21T13:05:58.014Z,1.90
2019-04-21T13:08:27.149Z,1.80
2019-04-21T13:10:56.135Z,1.87
2019-04-21T13:13:26.034Z,1.70
2019-04-21T13:15:55.774Z,2.00
2019-04-21T13:18:24.326Z,2.10
2019-04-21T13:20:54.029Z,2.07
2019-04-21T13:23:23.080Z,1.80
2019-04-21T13:25:52.044Z,2.17
2019-04-21T13:28:20.801Z,2.20
2019-04-21T13:30:50.645Z,2.40
2019-04-21T13:33:20.884Z,2.47
2019-04-21T13:35:50.903Z,2.10
2019-04-21T13:38:29.374Z,2.00
2019-04-21T13:41:15.017Z,2.20
2019-04-21T13:43:27.494Z,2.00
2019-04-21T13:45:57.388Z,2.13
2019-04-21T13:48:26.492Z,2.30
2019-04-21T13:50:55.376Z,2.30
2019-04-21T13:53:24.999Z,2.30
2019-04-21T13:55:53.540Z,2.30
2019-04-21T13:58:22.171Z,2.20
2019-04-21T14:00:52.393Z,2.20
2019-04-21T14:03:23.066Z,2.43
2019-04-21T14:05:51.299Z,2.43
2019-04-21T14:08:21.054Z,2.13
2019-04-21T14:10:49.622Z,2.57
2019-04-21T14:13:18.507Z,2.30
2019-04-21T14:15:49.743Z,2.53
2019-04-21T14:18:18.506Z,2.80
2019-04-21T14:20:47.097Z,2.33
2019-04-21T14:23:25.528Z,2.40
2019-04-21T14:25:46.245Z,2.07
2019-04-21T14:28:15.630Z,2.50
2019-04-21T14:30:44.540Z,2.17
2019-04-21T14:33:14.184Z,2.33
2019-04-21T14:35:43.032Z,3.73
2019-04-21T14:38:11.596Z,2.37
2019-04-21T14:40:40.082Z,2.47
2019-04-21T14:43:10.151Z,2.33
2019-04-21T14:45:40.821Z,2.33
2019-04-21T14:48:23.287Z,2.10
2019-04-21T14:51:06.538Z,2.30
2019-04-21T14:53:53.948Z,2.60
2019-04-21T14:56:22.493Z,2.57
2019-04-21T14:58:51.233Z,2.27
2019-04-21T15:01:19.896Z,2.50
2019-04-21T15:03:49.923Z,2.50
2019-04-21T15:06:19.025Z,2.50
2019-04-21T15:08:49.081Z,2.30
2019-04-21T15:11:18.053Z,2.33
2019-04-21T15:13:47.998Z,2.20
2019-04-21T15:16:16.611Z,3.10
2019-04-21T15:18:46.457Z,4.57
2019-04-21T15:21:15.338Z,3.30
2019-04-21T15:23:44.661Z,2.77
2019-04-21T15:26:14.354Z,2.67
2019-04-21T15:28:42.860Z,2.80
2019-04-21T15:31:12.706Z,2.67
2019-04-21T15:33:41.657Z,2.50
2019-04-21T15:36:11.263Z,2.70
2019-04-21T15:38:40.189Z,2.73
2019-04-21T15:41:10.701Z,2.50
2019-04-21T15:43:38.898Z,2.30
2019-04-21T15:46:08.757Z,2.70
2019-04-21T15:48:37.376Z,2.50
2019-04-21T15:51:08.646Z,2.30
2019-04-21T15:53:37.937Z,2.37
2019-04-21T15:56:11.265Z,4.37
2019-04-21T15:58:42.812Z,2.80
2019-04-21T16:01:18.823Z,3.20
2019-04-21T16:03:47.371Z,2.93
2019-04-21T16:06:17.371Z,3.10
2019-04-21T16:08:47.639Z,2.63
2019-04-21T16:11:16.103Z,2.40
2019-04-21T16:13:45.959Z,2.50
2019-04-21T16:16:14.720Z,2.40
2019-04-21T16:18:43.254Z,2.40
2019-04-21T16:21:11.879Z,2.73
2019-04-21T16:23:40.579Z,2.33
2019-04-21T16:26:10.768Z,2.77
2019-04-21T16:28:39.635Z,2.90
2019-04-21T16:31:08.112Z,2.70
2019-04-21T16:33:36.889Z,2.47
2019-04-21T16:36:08.210Z,2.40
2019-04-21T16:38:35.785Z,2.60
2019-04-21T16:41:08.152Z,2.57
2019-04-21T16:43:35.419Z,2.47
2019-04-21T16:46:04.659Z,2.53
2019-04-21T16:48:33.755Z,2.33
2019-04-21T16:51:03.583Z,2.37
2019-04-21T16:53:39.826Z,2.33
2019-04-21T16:56:15.486Z,2.00
2019-04-21T16:58:48.487Z,2.63
2019-04-21T17:01:29.588Z,2.20
2019-04-21T17:03:58.278Z,2.70
2019-04-21T17:06:27.171Z,2.70
2019-04-21T17:08:56.777Z,2.40
2019-04-21T17:11:30.387Z,2.33
2019-04-21T17:13:56.687Z,2.23
2019-04-21T17:17:03.837Z,2.40
2019-04-21T17:19:05.311Z,2.73
2019-04-21T17:21:28.146Z,2.40
2019-04-21T17:23:56.905Z,2.20
2019-04-21T17:26:26.806Z,2.10
2019-04-21T17:28:56.602Z,2.40
2019-04-21T17:31:26.529Z,2.67
2019-04-21T17:34:02.012Z,2.80
2019-04-21T17:36:25.420Z,2.20
2019-04-21T17:38:54.305Z,2.50
2019-04-21T17:41:32.693Z,2.53
2019-04-21T17:43:54.429Z,2.50
2019-04-21T17:46:34.519Z,2.63
2019-04-21T17:48:53.157Z,2.33
2019-04-21T17:51:32.082Z,2.47
2019-04-21T17:54:13.631Z,2.50
2019-04-21T17:56:59.495Z,2.50
2019-04-21T17:59:41.580Z,2.40
2019-04-21T18:01:53.401Z,2.70
2019-04-21T18:04:28.953Z,2.40
2019-04-21T18:06:58.174Z,2.23
2019-04-21T18:09:44.055Z,2.43
2019-04-21T18:12:05.526Z,2.33
2019-04-21T18:14:18.986Z,2.70
2019-04-21T18:16:48.661Z,2.37
2019-04-21T18:19:20.567Z,2.70
2019-04-21T18:22:03.882Z,2.50
2019-04-21T18:24:40.616Z,2.40
2019-04-21T18:27:06.001Z,2.50
2019-04-21T18:29:33.931Z,2.63
2019-04-21T18:32:02.837Z,2.80
2019-04-21T18:34:44.291Z,2.60
2019-04-21T18:37:14.739Z,2.60
2019-04-21T18:40:00.056Z,2.30
2019-04-21T18:42:37.529Z,2.50
2019-04-21T18:45:38.736Z,2.57
2019-04-21T18:47:58.499Z,2.40
2019-04-21T18:50:16.406Z,2.60
2019-04-21T18:53:02.029Z,2.77
2019-04-21T18:55:27.867Z,2.40
2019-04-21T18:57:50.956Z,2.40
2019-04-21T19:00:24.351Z,2.37
2019-04-21T19:02:52.386Z,2.50
2019-04-21T19:05:22.631Z,2.43
2019-04-21T19:08:05.685Z,2.50
2019-04-21T19:10:45.710Z,2.10
2019-04-21T19:13:28.237Z,2.83
2019-04-21T19:15:42.543Z,2.37
2019-04-21T19:18:32.528Z,2.40
2019-04-21T19:20:39.405Z,2.20
2019-04-21T19:23:12.562Z,2.37
2019-04-21T19:25:41.360Z,3.27
2019-04-21T19:28:06.490Z,2.30
2019-04-21T19:30:50.702Z,2.43
2019-04-21T19:33:10.118Z,2.17
2019-04-21T19:35:27.564Z,2.63
2019-04-21T19:38:01.170Z,2.40
2019-04-21T19:40:41.421Z,2.57
2019-04-21T19:43:07.005Z,2.50
2019-04-21T19:45:38.070Z,2.40
2019-04-21T19:48:12.211Z,2.60
2019-04-21T19:50:47.079Z,2.53
2019-04-21T19:53:06.237Z,2.37
2019-04-21T19:55:28.306Z,2.53
2019-04-21T19:57:56.827Z,2.30
2019-04-21T20:00:26.592Z,2.60
2019-04-21T20:02:56.354Z,2.40
2019-04-21T20:05:35.266Z,2.37
2019-04-21T20:08:12.916Z,2.70
2019-04-21T20:10:44.330Z,2.80
2019-04-21T20:13:28.367Z,2.70
2019-04-21T20:15:44.779Z,2.60
2019-04-21T20:18:10.107Z,2.90
2019-04-21T20:20:26.968Z,2.60
2019-04-21T20:22:57.154Z,2.97
2019-04-21T20:25:27.292Z,3.10
2019-04-21T20:28:05.465Z,2.97
2019-04-21T20:30:42.316Z,2.90
2019-04-21T20:33:39.744Z,2.80
2019-04-21T20:35:52.063Z,2.83
2019-04-21T20:38:13.888Z,3.00
2019-04-21T20:40:36.267Z,3.03
2019-04-21T20:43:17.717Z,3.10
2019-04-21T20:45:46.877Z,3.07
2019-04-21T20:48:07.235Z,3.17
2019-04-21T20:50:43.483Z,3.37
2019-04-21T20:53:17.626Z,3.37
2019-04-21T20:55:44.176Z,3.10
2019-04-21T20:58:09.193Z,2.90
2019-04-21T21:00:55.843Z,3.40
2019-04-21T21:03:23.158Z,3.13
2019-04-21T21:05:45.006Z,3.23
2019-04-21T21:08:25.934Z,3.17
2019-04-21T21:10:49.252Z,3.10
2019-04-21T21:13:26.616Z,3.30
2019-04-21T21:16:01.189Z,4.07
2019-04-21T21:18:38.529Z,2.90
2019-04-21T21:20:49.409Z,3.20
2019-04-21T21:23:15.879Z,3.57
2019-04-21T21:25:50.949Z,2.93
2019-04-21T21:28:10.123Z,3.50
2019-04-21T21:30:43.154Z,4.03
2019-04-21T21:33:22.501Z,3.37
2019-04-21T21:35:42.478Z,3.50
2019-04-21T21:38:28.101Z,3.33
2019-04-21T21:40:49.633Z,3.50
2019-04-21T21:43:08.145Z,4.37
2019-04-21T21:45:42.527Z,3.87
2019-04-21T21:48:21.939Z,3.33
2019-04-21T21:50:47.010Z,3.40
2019-04-21T21:53:13.540Z,3.60
2019-04-21T21:55:38.607Z,3.40
2019-04-21T21:58:08.496Z,3.20
2019-04-21T22:00:42.948Z,3.00
2019-04-21T22:03:18.848Z,3.60
2019-04-21T22:05:47.546Z,3.60
2019-04-21T22:08:10.164Z,3.43
2019-04-21T22:10:39.180Z,3.50
2019-04-21T22:13:12.813Z,3.43
2019-04-21T22:15:39.529Z,3.40
2019-04-21T22:18:25.910Z,3.43
2019-04-21T22:20:55.090Z,3.77
2019-04-21T22:23:13.345Z,3.50
2019-04-21T22:25:41.771Z,3.43
2019-04-21T22:28:09.660Z,3.40
2019-04-21T22:30:42.723Z,3.77
2019-04-21T22:33:12.342Z,3.23
2019-04-21T22:35:48.895Z,3.40
2019-04-21T22:38:25.675Z,3.40
2019-04-21T22:40:50.635Z,3.60
2019-04-21T22:43:19.483Z,3.17
2019-04-21T22:45:41.097Z,3.60
2019-04-21T22:48:15.564Z,3.30
2019-04-21T22:50:40.683Z,3.67
2019-04-21T22:53:10.607Z,3.50
2019-04-21T22:55:40.850Z,3.30
2019-04-21T22:58:09.683Z,3.40
2019-04-21T23:00:44.668Z,3.30
2019-04-21T23:03:13.620Z,3.73
2019-04-21T23:05:41.715Z,3.80
2019-04-21T23:08:10.933Z,3.57
2019-04-21T23:10:41.470Z,3.50
2019-04-21T23:13:15.673Z,3.40
2019-04-21T23:15:46.157Z,3.90
2019-04-21T23:18:25.948Z,3.53
2019-04-21T23:20:57.758Z,3.70
2019-04-21T23:23:29.690Z,3.40
2019-04-21T23:25:56.045Z,3.80
2019-04-21T23:28:30.424Z,4.03
2019-04-21T23:31:05.600Z,3.33
2019-04-21T23:33:15.735Z,3.80
2019-04-21T23:35:45.646Z,3.40
2019-04-21T23:38:12.917Z,3.90
2019-04-21T23:40:51.167Z,3.57
2019-04-21T23:43:18.763Z,4.00
2019-04-21T23:45:44.832Z,3.63
2019-04-21T23:48:27.140Z,3.60
2019-04-21T23:50:51.369Z,3.90
2019-04-21T23:53:13.757Z,3.87
2019-04-21T23:55:43.375Z,4.07
2019-04-21T23:58:18.688Z,3.83
